Time;durP1;ratioP1;P1;durP2;ratioP2;P2;SDS_P1;SDS_P2;PMS_P1;PMS_P2;Temp;Humidity;BMP_temperature;BMP_pressure;BME280_temperature;BME280_humidity;BME280_pressure;Samples;Min_cycle;Max_cycle;Signal;HPM_P1;HPM_P2
2023/09/17 04:05:17;;;;;;;0.50;0.50;;;18.30;99.90;;;;;;5747469;23;20941;-61
2023/09/17 04:07:45;;;;;;;0.30;0.30;;;18.30;99.90;;;;;;4977435;28;20507;-62
2023/09/17 04:10:12;;;;;;;0.40;0.30;;;18.30;99.90;;;;;;4977641;28;20412;-61
2023/09/17 04:12:40;;;;;;;0.50;0.50;;;18.30;99.90;;;;;;4977662;28;20428;-61
2023/09/17 04:15:12;;;;;;;0.30;0.20;;;18.20;99.90;;;;;;4977069;28;20824;-61
2023/09/17 04:17:38;;;;;;;0.37;0.37;;;18.20;99.90;;;;;;4977383;28;20410;-62
2023/09/17 04:20:09;;;;;;;0.30;0.30;;;18.10;99.90;;;;;;4977371;28;20454;-61
2023/09/17 04:22:35;;;;;;;0.30;0.20;;;18.10;99.90;;;;;;4977369;28;20423;-60
2023/09/17 04:25:00;;;;;;;0.30;0.30;;;18.10;99.90;;;;;;4976793;28;20467;-61
2023/09/17 04:27:26;;;;;;;0.50;0.50;;;18.10;99.90;;;;;;4977375;28;20257;-61
2023/09/17 04:29:52;;;;;;;0.30;0.30;;;18.00;99.90;;;;;;4977313;28;20237;-61
2023/09/17 04:32:18;;;;;;;0.30;0.30;;;18.00;99.90;;;;;;4977618;28;20414;-61
2023/09/17 04:34:43;;;;;;;0.30;0.30;;;18.00;99.90;;;;;;4976040;28;20192;-62
2023/09/17 04:37:10;;;;;;;0.50;0.50;;;18.00;99.90;;;;;;4976784;28;20414;-62
2023/09/17 04:39:36;;;;;;;0.30;0.30;;;18.00;99.90;;;;;;4977189;28;20195;-62
2023/09/17 04:42:01;;;;;;;0.70;0.50;;;18.00;99.90;;;;;;4977077;28;20442;-62
2023/09/17 04:44:28;;;;;;;0.30;0.30;;;18.00;99.90;;;;;;4976833;28;20178;-62
2023/09/17 04:46:54;;;;;;;0.30;0.30;;;18.00;99.90;;;;;;4976830;28;20177;-61
2023/09/17 04:49:19;;;;;;;0.50;0.30;;;17.90;99.90;;;;;;4976872;28;20462;-62
2023/09/17 04:51:45;;;;;;;0.30;0.30;;;17.90;99.90;;;;;;4976968;28;20932;-61
2023/09/17 04:54:11;;;;;;;0.30;0.30;;;17.90;99.90;;;;;;4958809;28;20265;-61
2023/09/17 04:56:37;;;;;;;0.30;0.30;;;17.90;99.90;;;;;;4976649;28;20202;-61
2023/09/17 04:59:05;;;;;;;0.30;0.30;;;17.80;99.90;;;;;;4976816;28;20547;-61
2023/09/17 05:01:30;;;;;;;0.40;0.40;;;17.80;99.90;;;;;;4976578;28;20412;-61
2023/09/17 05:03:57;;;;;;;0.30;0.20;;;17.80;99.90;;;;;;4976316;28;20404;-61
2023/09/17 05:06:22;;;;;;;0.30;0.30;;;17.80;99.90;;;;;;4976460;28;20579;-61
2023/09/17 05:08:48;;;;;;;0.50;0.50;;;17.80;99.90;;;;;;4976543;28;20494;-62
2023/09/17 05:11:13;;;;;;;0.30;0.20;;;17.90;99.90;;;;;;4976579;28;20198;-60
2023/09/17 05:13:39;;;;;;;0.30;0.30;;;17.90;99.90;;;;;;4976128;28;20196;-61
2023/09/17 05:16:06;;;;;;;0.30;0.20;;;17.90;99.90;;;;;;4976798;28;20206;-61
2023/09/17 05:18:31;;;;;;;0.37;0.37;;;17.90;99.90;;;;;;4976397;28;20179;-61
2023/09/17 05:20:57;;;;;;;0.40;0.40;;;17.90;99.90;;;;;;4976528;28;20404;-61
2023/09/17 05:23:23;;;;;;;0.70;0.60;;;17.90;99.90;;;;;;4976290;28;20180;-62
2023/09/17 05:25:49;;;;;;;0.37;0.37;;;18.00;99.90;;;;;;4975901;28;20565;-62
2023/09/17 05:28:15;;;;;;;0.30;0.30;;;18.00;99.90;;;;;;4976216;28;20813;-62
2023/09/17 05:30:41;;;;;;;0.30;0.30;;;18.00;99.90;;;;;;4976227;28;20430;-60
2023/09/17 05:33:07;;;;;;;0.30;0.20;;;18.10;99.90;;;;;;4976038;28;20407;-62
2023/09/17 05:35:34;;;;;;;0.40;0.40;;;18.10;99.90;;;;;;4975622;28;20238;-62
2023/09/17 05:38:00;;;;;;;0.53;0.53;;;18.10;99.90;;;;;;4976074;28;20778;-61
2023/09/17 05:40:26;;;;;;;1.13;0.60;;;18.10;99.90;;;;;;4975974;28;20488;-62
2023/09/17 05:42:52;;;;;;;0.60;0.60;;;18.10;99.90;;;;;;4965086;28;20402;-61
2023/09/17 05:45:18;;;;;;;0.83;0.47;;;18.20;99.90;;;;;;4969978;28;20455;-61
2023/09/17 05:47:43;;;;;;;0.30;0.30;;;18.20;99.90;;;;;;4974783;28;20171;-62
2023/09/17 05:50:10;;;;;;;0.30;0.30;;;18.30;99.90;;;;;;4956489;28;20429;-62
2023/09/17 05:52:36;;;;;;;0.30;0.30;;;18.40;99.90;;;;;;4939215;29;20184;-61
2023/09/17 05:55:05;;;;;;;0.40;0.40;;;18.40;99.90;;;;;;4955728;29;20452;-62
2023/09/17 05:57:31;;;;;;;0.30;0.30;;;18.60;99.90;;;;;;4956224;29;20539;-59
2023/09/17 05:59:57;;;;;;;0.40;0.40;;;18.70;99.90;;;;;;4956413;29;20412;-62
2023/09/17 06:02:23;;;;;;;0.40;0.40;;;18.70;99.90;;;;;;4956201;28;20443;-62
2023/09/17 06:04:52;;;;;;;1.07;1.07;;;18.80;99.90;;;;;;4974645;28;20938;-62
2023/09/17 06:07:19;;;;;;;0.30;0.30;;;18.80;99.90;;;;;;4974442;28;20191;-61
2023/09/17 06:09:44;;;;;;;0.60;0.60;;;18.90;99.90;;;;;;4975378;28;20461;-61
2023/09/17 06:12:10;;;;;;;0.30;0.30;;;19.00;99.90;;;;;;4975108;28;20447;-61
2023/09/17 06:14:36;;;;;;;0.30;0.30;;;19.10;99.90;;;;;;4975014;28;20165;-61
2023/09/17 06:17:01;;;;;;;0.30;0.30;;;19.20;99.90;;;;;;4975077;28;20466;-61
2023/09/17 06:19:29;;;;;;;0.30;0.30;;;19.30;99.90;;;;;;4956428;28;20500;-62
2023/09/17 06:21:54;;;;;;;0.30;0.30;;;19.40;99.90;;;;;;4955973;29;20197;-62
2023/09/17 06:24:20;;;;;;;0.30;0.30;;;19.50;99.90;;;;;;4964669;28;20426;-61
2023/09/17 06:26:46;;;;;;;0.30;0.30;;;19.60;99.90;;;;;;4975014;28;20500;-61
2023/09/17 06:29:11;;;;;;;0.30;0.30;;;19.80;99.90;;;;;;4974965;28;20172;-60
2023/09/17 06:31:37;;;;;;;0.30;0.30;;;19.90;99.90;;;;;;4975009;28;20180;-61
2023/09/17 06:34:03;;;;;;;0.60;0.60;;;20.00;99.90;;;;;;4974402;28;20181;-61
2023/09/17 06:36:29;;;;;;;0.30;0.30;;;20.00;99.90;;;;;;4974805;28;20466;-62
2023/09/17 06:38:55;;;;;;;0.40;0.40;;;20.10;99.90;;;;;;4966274;28;20400;-61
2023/09/17 06:41:21;;;;;;;0.30;0.30;;;20.10;99.90;;;;;;4967819;28;20266;-61
2023/09/17 06:43:47;;;;;;;0.40;0.40;;;20.10;99.90;;;;;;4957128;28;20639;-61
2023/09/17 06:46:12;;;;;;;0.30;0.27;;;20.10;99.90;;;;;;4974709;28;20558;-62
2023/09/17 06:48:38;;;;;;;0.30;0.30;;;20.10;99.90;;;;;;4974535;28;20183;-61
2023/09/17 06:51:04;;;;;;;0.60;0.60;;;20.20;99.90;;;;;;4974837;28;20168;-61
2023/09/17 06:53:29;;;;;;;0.30;0.30;;;20.20;99.90;;;;;;4967488;28;20220;-61
2023/09/17 06:55:57;;;;;;;0.40;0.40;;;20.30;99.90;;;;;;4954739;29;20208;-61
2023/09/17 06:58:22;;;;;;;0.30;0.30;;;20.40;99.90;;;;;;4955220;29;20195;-61
2023/09/17 07:00:48;;;;;;;0.30;0.30;;;20.50;99.90;;;;;;4955247;28;20391;-61
2023/09/17 07:03:13;;;;;;;0.30;0.30;;;20.70;99.90;;;;;;4955374;28;20224;-61
2023/09/17 07:05:41;;;;;;;0.50;0.50;;;21.10;99.90;;;;;;4954887;29;20197;-61
2023/09/17 07:08:06;;;;;;;0.30;0.30;;;21.50;99.90;;;;;;4960713;28;20627;-61
2023/09/17 07:10:32;;;;;;;0.30;0.20;;;22.00;99.90;;;;;;4974359;28;20435;-60
2023/09/17 07:12:58;;;;;;;0.30;0.30;;;22.20;99.90;;;;;;4974596;28;20267;-62
2023/09/17 07:15:25;;;;;;;0.30;0.30;;;22.40;99.90;;;;;;4973891;28;20286;-62
2023/09/17 07:17:52;;;;;;;0.50;0.50;;;22.50;99.90;;;;;;4976390;28;20179;-62
2023/09/17 07:20:19;;;;;;;0.60;0.60;;;22.70;99.90;;;;;;4961094;28;20394;-62
2023/09/17 07:22:47;;;;;;;1.13;0.53;;;22.70;99.90;;;;;;4973092;28;20420;-62
2023/09/17 07:25:12;;;;;;;0.30;0.20;;;22.80;99.90;;;;;;4958399;29;20445;-62
2023/09/17 07:27:39;;;;;;;0.30;0.30;;;22.90;99.90;;;;;;4941596;29;20458;-62
2023/09/17 07:30:05;;;;;;;0.30;0.30;;;22.90;99.90;;;;;;4959058;28;20208;-62
2023/09/17 07:32:31;;;;;;;0.30;0.30;;;22.90;99.90;;;;;;4959067;29;20431;-62
2023/09/17 07:34:57;;;;;;;0.30;0.20;;;22.90;99.90;;;;;;4958325;29;20496;-63
2023/09/17 07:37:23;;;;;;;0.30;0.30;;;23.00;99.90;;;;;;4962445;28;20181;-62
2023/09/17 07:39:55;;;;;;;0.60;0.43;;;23.10;99.90;;;;;;4978183;28;20411;-63
2023/09/17 07:42:21;;;;;;;0.30;0.30;;;23.10;99.90;;;;;;4978119;28;20176;-62
2023/09/17 07:44:47;;;;;;;0.40;0.40;;;23.10;99.90;;;;;;4977506;28;20401;-64
2023/09/17 07:47:12;;;;;;;0.30;0.30;;;23.10;99.90;;;;;;4977996;28;20653;-62
2023/09/17 07:49:38;;;;;;;0.30;0.23;;;23.10;99.90;;;;;;4977891;28;20242;-62
2023/09/17 07:52:05;;;;;;;0.30;0.20;;;23.10;99.90;;;;;;4973930;28;20173;-62
2023/09/17 07:54:36;;;;;;;0.30;0.20;;;23.10;99.90;;;;;;4958048;29;20372;-62
2023/09/17 07:57:04;;;;;;;0.30;0.30;;;23.10;99.90;;;;;;4958735;29;20399;-62
2023/09/17 07:59:30;;;;;;;0.30;0.30;;;23.10;99.90;;;;;;4958289;29;20460;-62
2023/09/17 08:01:56;;;;;;;0.30;0.20;;;23.10;99.90;;;;;;4958089;28;20490;-60
2023/09/17 08:04:22;;;;;;;0.40;0.37;;;23.10;99.90;;;;;;4957820;28;20390;-61
2023/09/17 08:06:49;;;;;;;0.30;0.30;;;23.10;99.90;;;;;;4958022;28;20753;-63
2023/09/17 08:09:15;;;;;;;0.30;0.20;;;23.20;99.90;;;;;;4951492;28;20187;-62
2023/09/17 08:11:42;;;;;;;0.63;0.63;;;23.20;99.90;;;;;;4977446;28;20419;-62
2023/09/17 08:14:08;;;;;;;0.30;0.27;;;23.20;99.90;;;;;;4977090;28;20423;-62
2023/09/17 08:16:35;;;;;;;0.60;0.60;;;23.30;99.90;;;;;;4977332;28;20468;-61
2023/09/17 08:19:00;;;;;;;0.30;0.30;;;23.40;99.90;;;;;;4977199;28;20429;-62
2023/09/17 08:21:27;;;;;;;0.30;0.20;;;23.50;99.90;;;;;;4977507;28;20443;-63
2023/09/17 08:23:52;;;;;;;0.30;0.30;;;23.60;99.90;;;;;;4966897;28;20399;-62
2023/09/17 08:26:18;;;;;;;0.30;0.30;;;23.80;99.90;;;;;;4957977;29;20440;-62
2023/09/17 08:28:45;;;;;;;0.37;0.33;;;24.00;99.90;;;;;;4957077;28;20224;-62
2023/09/17 08:31:11;;;;;;;0.30;0.30;;;24.20;99.90;;;;;;4957836;28;20937;-62
2023/09/17 08:33:37;;;;;;;0.40;0.40;;;24.40;99.90;;;;;;4957578;29;20411;-62
2023/09/17 08:36:02;;;;;;;0.30;0.30;;;24.70;99.90;;;;;;4957482;29;20460;-63
2023/09/17 08:38:29;;;;;;;0.60;0.40;;;25.10;99.90;;;;;;4962478;28;20185;-62
2023/09/17 08:40:57;;;;;;;4.80;0.53;;;25.50;99.90;;;;;;4977017;28;20215;-62
2023/09/17 08:43:23;;;;;;;0.40;0.40;;;26.20;99.90;;;;;;4976960;28;20402;-63
2023/09/17 08:45:50;;;;;;;0.70;0.70;;;27.10;99.90;;;;;;4976413;28;20434;-60
2023/09/17 08:48:17;;;;;;;0.50;0.50;;;28.00;99.90;;;;;;4976948;28;20428;-62
2023/09/17 08:50:49;;;;;;;0.60;0.60;;;29.30;99.30;;;;;;4976693;28;20920;-62
2023/09/17 08:53:19;;;;;;;0.50;0.37;;;30.40;96.50;;;;;;4971271;28;20425;-62
2023/09/17 08:55:47;;;;;;;0.50;0.50;;;31.30;94.40;;;;;;4956802;29;20472;-62
2023/09/17 08:58:17;;;;;;;0.60;0.40;;;32.30;93.20;;;;;;4957258;28;20496;-63
2023/09/17 09:00:49;;;;;;;0.50;0.50;;;33.50;92.10;;;;;;4957590;29;20419;-62
2023/09/17 09:03:17;;;;;;;0.40;0.40;;;34.90;86.80;;;;;;4957574;29;20755;-64
2023/09/17 09:05:44;;;;;;;0.63;0.63;;;35.90;84.60;;;;;;4956647;29;20488;-64
2023/09/17 09:08:13;;;;;;;0.80;0.80;;;36.90;79.20;;;;;;4963415;28;20975;-62
2023/09/17 09:10:38;;;;;;;0.60;0.60;;;37.80;74.80;;;;;;4976468;28;20498;-62
2023/09/17 09:13:04;;;;;;;0.53;0.53;;;38.40;71.60;;;;;;4976383;28;20898;-62
2023/09/17 09:15:30;;;;;;;0.50;0.50;;;38.70;69.80;;;;;;4975823;28;20259;-62
2023/09/17 09:17:56;;;;;;;0.50;0.50;;;39.00;66.60;;;;;;4976149;28;20180;-62
2023/09/17 09:20:22;;;;;;;0.80;0.80;;;39.30;66.00;;;;;;4976336;28;20474;-62
2023/09/17 09:22:48;;;;;;;0.97;0.60;;;39.60;64.90;;;;;;4970124;28;20632;-63
2023/09/17 09:25:18;;;;;;;0.60;0.60;;;40.00;63.20;;;;;;4956386;29;20432;-62
2023/09/17 09:27:44;;;;;;;0.60;0.60;;;40.20;61.80;;;;;;4956929;29;20184;-63
2023/09/17 09:30:11;;;;;;;0.90;0.80;;;40.10;61.90;;;;;;4956875;29;20417;-62
2023/09/17 09:32:37;;;;;;;0.60;0.60;;;40.10;59.90;;;;;;4956648;29;20424;-62
2023/09/17 09:35:04;;;;;;;0.70;0.70;;;39.50;61.00;;;;;;4956049;29;20457;-63
2023/09/17 09:37:31;;;;;;;0.60;0.60;;;39.00;61.30;;;;;;4957526;28;20424;-62
2023/09/17 09:39:58;;;;;;;0.60;0.60;;;38.80;63.70;;;;;;4956455;28;20417;-62
2023/09/17 09:42:25;;;;;;;0.50;0.50;;;39.00;62.20;;;;;;4956570;29;20420;-62
2023/09/17 09:44:52;;;;;;;0.60;0.60;;;39.00;62.40;;;;;;4959692;28;20447;-63
2023/09/17 09:47:23;;;;;;;0.57;0.57;;;39.00;62.20;;;;;;4956375;29;21005;-61
2023/09/17 09:49:49;;;;;;;0.60;0.60;;;38.90;62.30;;;;;;4956398;29;20432;-62
2023/09/17 09:52:15;;;;;;;0.70;0.70;;;38.90;61.90;;;;;;4956277;29;20412;-62
2023/09/17 09:54:42;;;;;;;0.60;0.60;;;38.80;61.40;;;;;;4955835;29;20224;-62
2023/09/17 09:57:10;;;;;;;0.50;0.50;;;38.90;61.50;;;;;;4956064;29;20435;-62
2023/09/17 09:59:36;;;;;;;0.40;0.40;;;38.90;61.00;;;;;;4973360;28;20431;-62
2023/09/17 10:02:10;;;;;;;0.67;0.67;;;39.10;59.90;;;;;;4975649;28;20482;-61
2023/09/17 10:04:37;;;;;;;0.60;0.60;;;38.60;59.80;;;;;;4975053;28;20183;-62
2023/09/17 10:07:04;;;;;;;0.43;0.43;;;38.20;61.50;;;;;;4975196;28;20435;-62
2023/09/17 10:09:30;;;;;;;0.40;0.40;;;38.00;62.20;;;;;;4975220;28;20412;-62
2023/09/17 10:11:57;;;;;;;0.60;0.60;;;38.00;62.40;;;;;;4975144;28;20419;-63
2023/09/17 10:14:25;;;;;;;0.73;0.73;;;38.20;61.90;;;;;;4956912;28;20181;-62
2023/09/17 10:16:51;;;;;;;0.50;0.50;;;38.40;60.60;;;;;;4955948;29;20479;-62
2023/09/17 10:19:21;;;;;;;0.60;0.60;;;38.80;58.50;;;;;;4955920;29;20516;-62
2023/09/17 10:21:48;;;;;;;0.50;0.50;;;39.20;57.50;;;;;;4955646;29;20468;-62
2023/09/17 10:24:17;;;;;;;0.50;0.50;;;39.30;58.40;;;;;;4955585;29;20397;-62
2023/09/17 10:26:44;;;;;;;0.50;0.50;;;39.10;59.10;;;;;;4955665;28;20515;-62
2023/09/17 10:29:10;;;;;;;1.17;0.53;;;39.10;59.10;;;;;;4964535;28;20483;-62
2023/09/17 10:31:37;;;;;;;0.50;0.50;;;39.20;59.30;;;;;;4955739;28;20428;-63
2023/09/17 10:34:04;;;;;;;0.60;0.60;;;39.00;58.20;;;;;;4955385;29;20409;-62
2023/09/17 10:36:31;;;;;;;0.60;0.60;;;38.80;57.40;;;;;;4955554;29;20827;-62
2023/09/17 10:38:59;;;;;;;0.70;0.70;;;38.50;57.50;;;;;;4955693;29;20409;-61
2023/09/17 10:41:27;;;;;;;0.40;0.40;;;37.90;57.90;;;;;;4955462;29;20388;-62
2023/09/17 10:43:54;;;;;;;0.40;0.40;;;37.60;58.60;;;;;;4972651;28;20431;-62
2023/09/17 10:46:22;;;;;;;0.30;0.30;;;37.30;59.40;;;;;;4974645;28;20481;-62
2023/09/17 10:48:50;;;;;;;0.40;0.40;;;37.00;59.70;;;;;;4974791;28;20403;-61
2023/09/17 10:51:19;;;;;;;0.30;0.30;;;36.90;59.40;;;;;;4974486;28;20425;-62
2023/09/17 10:53:44;;;;;;;0.50;0.40;;;36.80;59.60;;;;;;4974061;28;20383;-61
2023/09/17 10:56:13;;;;;;;0.40;0.40;;;36.50;59.80;;;;;;4974475;28;21060;-62
2023/09/17 10:58:45;;;;;;;0.33;0.30;;;36.10;60.20;;;;;;4956611;28;20667;-61
2023/09/17 11:01:14;;;;;;;0.50;0.50;;;35.80;62.30;;;;;;4955406;29;20430;-62
2023/09/17 11:03:44;;;;;;;0.40;0.30;;;35.50;62.50;;;;;;4955028;29;20399;-63
2023/09/17 11:06:23;;;;;;;0.30;0.30;;;35.40;63.30;;;;;;4954959;29;20449;-63
2023/09/17 11:08:52;;;;;;;0.47;0.47;;;34.80;65.90;;;;;;4955285;29;20412;-62
2023/09/17 11:11:18;;;;;;;0.40;0.30;;;34.30;68.10;;;;;;4955936;28;20818;-61
2023/09/17 11:13:48;;;;;;;0.30;0.30;;;33.80;68.10;;;;;;4974156;28;20386;-61
2023/09/17 11:16:34;;;;;;;0.30;0.30;;;33.20;68.20;;;;;;4974205;28;20459;-62
2023/09/17 11:19:10;;;;;;;0.30;0.30;;;32.90;71.40;;;;;;4973924;28;20481;-62
2023/09/17 11:21:49;;;;;;;0.30;0.30;;;32.60;70.30;;;;;;4974376;28;20507;-62
2023/09/17 11:24:17;;;;;;;0.30;0.30;;;32.40;70.30;;;;;;4974120;28;20424;-61
2023/09/17 11:26:47;;;;;;;0.40;0.40;;;32.00;71.20;;;;;;4967881;28;20492;-62
2023/09/17 11:29:14;;;;;;;0.40;0.40;;;31.80;71.50;;;;;;4937832;29;20450;-62
2023/09/17 11:31:52;;;;;;;0.47;0.47;;;31.50;72.30;;;;;;4955064;28;20393;-61
2023/09/17 11:34:18;;;;;;;0.40;0.30;;;31.30;74.60;;;;;;4954655;29;20580;-64
2023/09/17 11:36:46;;;;;;;0.30;0.20;;;31.30;72.70;;;;;;4955134;29;20437;-62
2023/09/17 11:39:15;;;;;;;0.40;0.40;;;31.30;73.80;;;;;;4954904;29;20412;-63
2023/09/17 11:41:46;;;;;;;0.60;0.57;;;31.20;74.30;;;;;;4962956;28;20419;-63
2023/09/17 11:44:12;;;;;;;0.50;0.40;;;31.30;73.60;;;;;;4973997;28;20429;-63
2023/09/17 11:46:38;;;;;;;0.77;0.30;;;31.20;74.90;;;;;;4974064;28;20850;-63
2023/09/17 11:49:03;;;;;;;1.10;0.73;;;31.20;72.30;;;;;;4974250;28;20405;-63
2023/09/17 11:51:30;;;;;;;0.83;0.40;;;31.10;73.40;;;;;;4974225;28;20208;-63
2023/09/17 11:53:57;;;;;;;0.30;0.30;;;31.20;74.40;;;;;;4973872;28;20187;-63
2023/09/17 11:56:34;;;;;;;0.30;0.30;;;31.20;73.90;;;;;;4966205;28;20442;-63
2023/09/17 11:59:10;;;;;;;0.30;0.20;;;31.20;72.50;;;;;;4955002;29;20874;-63
2023/09/17 12:01:43;;;;;;;0.50;0.40;;;31.10;73.30;;;;;;4954994;29;20448;-63
2023/09/17 12:04:11;;;;;;;0.40;0.40;;;31.10;73.20;;;;;;4955149;28;20519;-62
2023/09/17 12:06:48;;;;;;;0.30;0.20;;;31.00;74.10;;;;;;4957958;29;20430;-63
2023/09/17 12:09:43;;;;;;;0.30;0.20;;;30.80;73.20;;;;;;4958494;29;20412;-63
2023/09/17 12:12:09;;;;;;;0.40;0.40;;;30.70;73.60;;;;;;4961580;28;20422;-62
2023/09/17 12:14:39;;;;;;;0.60;0.60;;;30.60;74.70;;;;;;4977087;28;20729;-63
2023/09/17 12:17:05;;;;;;;0.30;0.30;;;30.70;76.00;;;;;;4977487;28;20386;-62
2023/09/17 12:19:31;;;;;;;0.30;0.30;;;30.80;74.70;;;;;;4977315;28;20461;-63
2023/09/17 12:21:59;;;;;;;0.33;0.33;;;30.80;74.90;;;;;;4977549;28;20251;-62
2023/09/17 12:24:29;;;;;;;0.50;0.50;;;30.90;74.30;;;;;;4976871;28;20655;-63
2023/09/17 12:29:29;;;;;;;0.40;0.40;;;30.80;74.10;;;;;;4957856;29;20397;-63
2023/09/17 12:31:55;;;;;;;0.40;0.40;;;30.80;74.30;;;;;;4957402;28;20527;-63
2023/09/17 12:34:21;;;;;;;0.80;0.70;;;30.90;73.00;;;;;;4940277;29;20678;-62
2023/09/17 12:36:47;;;;;;;0.40;0.30;;;31.00;72.80;;;;;;4957782;29;20423;-62
2023/09/17 12:39:12;;;;;;;0.30;0.20;;;31.00;72.60;;;;;;4957897;29;20173;-62
2023/09/17 12:41:38;;;;;;;0.70;0.40;;;31.10;72.90;;;;;;4959030;28;20176;-62
2023/09/17 12:44:03;;;;;;;0.30;0.23;;;31.10;72.50;;;;;;4957075;29;20197;-64
2023/09/17 12:46:29;;;;;;;0.30;0.30;;;31.10;72.30;;;;;;4957428;29;20272;-62
2023/09/17 12:48:55;;;;;;;0.53;0.50;;;31.10;72.00;;;;;;4957522;29;20188;-61
2023/09/17 12:51:21;;;;;;;0.87;0.87;;;31.00;72.40;;;;;;4957561;29;20755;-62
2023/09/17 12:53:47;;;;;;;0.40;0.40;;;30.90;72.60;;;;;;4957159;29;20180;-61
2023/09/17 12:56:13;;;;;;;0.40;0.33;;;30.90;72.50;;;;;;4957076;28;20205;-64
2023/09/17 12:58:39;;;;;;;0.47;0.40;;;30.80;73.70;;;;;;4957469;29;20748;-63
2023/09/17 13:01:10;;;;;;;0.50;0.30;;;30.80;73.40;;;;;;4940275;29;20177;-63
2023/09/17 13:03:36;;;;;;;0.30;0.30;;;30.70;73.00;;;;;;4957473;29;20188;-63
2023/09/17 13:06:02;;;;;;;0.40;0.40;;;30.70;73.20;;;;;;4956834;29;20437;-63
2023/09/17 13:08:29;;;;;;;0.40;0.40;;;30.80;73.10;;;;;;4957297;29;20391;-61
2023/09/17 13:10:57;;;;;;;0.40;0.40;;;30.70;73.40;;;;;;4958675;28;20431;-61
2023/09/17 13:13:25;;;;;;;0.40;0.40;;;30.70;72.90;;;;;;4976486;28;20456;-61
2023/09/17 13:15:50;;;;;;;2.67;0.40;;;30.60;72.90;;;;;;4975633;28;20470;-61
2023/09/17 13:18:16;;;;;;;0.40;0.30;;;30.50;73.50;;;;;;4959075;28;20863;-63
2023/09/17 13:20:42;;;;;;;0.40;0.40;;;30.50;73.70;;;;;;4976393;28;20172;-61
2023/09/17 13:23:08;;;;;;;0.90;0.90;;;30.40;73.40;;;;;;4966700;28;20258;-61
2023/09/17 13:25:36;;;;;;;0.30;0.20;;;30.30;73.40;;;;;;4956434;28;20207;-62
2023/09/17 13:28:13;;;;;;;0.30;0.20;;;30.20;74.00;;;;;;4957068;29;20379;-62
2023/09/17 13:30:39;;;;;;;0.40;0.30;;;30.10;74.10;;;;;;4939599;29;20438;-62
2023/09/17 13:33:05;;;;;;;0.50;0.50;;;30.10;74.20;;;;;;4939725;29;20417;-63
2023/09/17 13:35:31;;;;;;;0.30;0.30;;;30.10;74.20;;;;;;4956104;29;20208;-62
2023/09/17 13:37:57;;;;;;;0.30;0.30;;;30.10;74.90;;;;;;4966347;28;20880;-62
2023/09/17 13:40:23;;;;;;;0.30;0.30;;;30.20;74.40;;;;;;4976082;28;20390;-62
2023/09/17 13:42:49;;;;;;;0.50;0.50;;;30.20;74.20;;;;;;4976012;28;20221;-63
2023/09/17 13:45:17;;;;;;;0.50;0.50;;;30.20;74.60;;;;;;4975364;28;20192;-63
2023/09/17 13:47:43;;;;;;;0.30;0.30;;;30.20;74.80;;;;;;4975290;28;20904;-64
2023/09/17 13:50:09;;;;;;;0.50;0.43;;;30.10;74.50;;;;;;4956292;28;20429;-63
2023/09/17 13:52:34;;;;;;;0.30;0.30;;;30.10;75.20;;;;;;4956356;29;20169;-62
2023/09/17 13:55:00;;;;;;;0.30;0.30;;;30.00;75.50;;;;;;4956009;29;20505;-61
2023/09/17 13:57:25;;;;;;;1.43;0.40;;;30.00;75.20;;;;;;4956453;29;20176;-61
2023/09/17 13:59:52;;;;;;;0.30;0.20;;;30.00;75.00;;;;;;4956541;28;20177;-62
2023/09/17 14:02:18;;;;;;;0.40;0.40;;;30.00;75.70;;;;;;4956232;29;20267;-62
2023/09/17 14:04:44;;;;;;;0.30;0.30;;;30.00;75.50;;;;;;4956465;28;20501;-63
2023/09/17 14:07:10;;;;;;;0.60;0.40;;;30.00;75.40;;;;;;4975177;28;20419;-62
2023/09/17 14:09:35;;;;;;;0.30;0.30;;;30.00;75.00;;;;;;4975544;28;20216;-64
2023/09/17 14:12:01;;;;;;;0.30;0.20;;;30.00;75.10;;;;;;4950402;29;20766;-62
2023/09/17 14:14:26;;;;;;;0.30;0.20;;;30.00;75.60;;;;;;4955554;28;20235;-63
2023/09/17 14:16:52;;;;;;;0.30;0.30;;;30.00;75.10;;;;;;4955870;29;20212;-62
2023/09/17 14:19:18;;;;;;;0.30;0.20;;;30.00;75.30;;;;;;4956036;29;20181;-63
2023/09/17 14:21:44;;;;;;;0.30;0.30;;;30.00;75.80;;;;;;4955820;28;20181;-62
2023/09/17 14:24:10;;;;;;;0.40;0.30;;;30.00;76.90;;;;;;4955642;29;20472;-63
2023/09/17 14:26:35;;;;;;;0.30;0.30;;;30.00;75.80;;;;;;4960693;28;20422;-61
2023/09/17 14:29:01;;;;;;;0.30;0.30;;;30.10;75.20;;;;;;4957657;28;20180;-62
2023/09/17 14:31:27;;;;;;;0.60;0.50;;;30.10;73.90;;;;;;4975096;28;20212;-62
2023/09/17 14:33:52;;;;;;;0.30;0.30;;;30.00;74.00;;;;;;4968345;28;20219;-62
2023/09/17 14:36:18;;;;;;;0.30;0.30;;;30.00;73.50;;;;;;4955676;29;20472;-62
2023/09/17 14:38:44;;;;;;;0.30;0.30;;;30.00;73.20;;;;;;4956001;28;20177;-61
2023/09/17 14:41:09;;;;;;;0.60;0.60;;;30.00;73.70;;;;;;4955756;29;20188;-63
2023/09/17 14:43:35;;;;;;;0.30;0.30;;;30.10;74.60;;;;;;4955537;28;20564;-63
2023/09/17 14:46:00;;;;;;;0.63;0.63;;;30.10;75.20;;;;;;4955522;29;20215;-63
2023/09/17 14:48:26;;;;;;;0.30;0.30;;;30.20;75.30;;;;;;4959719;28;20185;-62
2023/09/17 14:50:52;;;;;;;0.40;0.40;;;30.20;75.00;;;;;;4974339;28;20259;-62
2023/09/17 14:53:18;;;;;;;0.30;0.20;;;30.20;74.30;;;;;;4974702;28;20180;-61
2023/09/17 14:55:47;;;;;;;0.30;0.30;;;30.10;73.80;;;;;;4974301;28;20779;-62
2023/09/17 14:58:13;;;;;;;0.30;0.20;;;30.10;74.10;;;;;;4974645;28;20172;-61
2023/09/17 15:00:39;;;;;;;0.30;0.27;;;30.10;73.50;;;;;;4974652;28;20416;-61
2023/09/17 15:03:04;;;;;;;0.30;0.30;;;30.10;73.90;;;;;;4970642;28;20436;-61
2023/09/17 15:05:30;;;;;;;0.67;0.60;;;30.10;73.60;;;;;;4954780;29;20201;-61
2023/09/17 15:07:56;;;;;;;0.50;0.50;;;30.10;73.70;;;;;;4955043;28;20201;-61
2023/09/17 15:10:21;;;;;;;0.30;0.20;;;30.10;73.60;;;;;;4955263;29;20277;-62
2023/09/17 15:12:48;;;;;;;0.40;0.40;;;30.10;73.10;;;;;;4955081;29;20219;-63
2023/09/17 15:15:13;;;;;;;0.30;0.30;;;30.10;73.20;;;;;;4954712;29;20208;-62
2023/09/17 15:17:39;;;;;;;0.30;0.20;;;30.00;73.30;;;;;;4957144;28;20418;-61
2023/09/17 15:20:05;;;;;;;0.30;0.20;;;30.00;73.50;;;;;;4974540;28;20531;-62
2023/09/17 15:22:31;;;;;;;0.30;0.30;;;30.00;73.60;;;;;;4974607;28;20165;-62
2023/09/17 15:24:56;;;;;;;0.30;0.20;;;29.90;73.20;;;;;;4974063;28;20406;-63
2023/09/17 15:27:22;;;;;;;0.30;0.20;;;29.80;73.00;;;;;;4974356;28;20204;-63
2023/09/17 15:29:48;;;;;;;0.37;0.30;;;29.80;72.80;;;;;;4974425;28;20639;-62
2023/09/17 15:32:13;;;;;;;0.30;0.30;;;29.80;73.30;;;;;;4973316;28;20661;-62
2023/09/17 15:34:40;;;;;;;0.60;0.40;;;29.70;73.00;;;;;;4954611;29;20208;-62
2023/09/17 15:37:06;;;;;;;0.80;0.80;;;29.70;72.80;;;;;;4955034;29;20215;-62
2023/09/17 15:39:31;;;;;;;0.30;0.30;;;29.70;72.40;;;;;;4958250;28;20731;-62
2023/09/17 15:41:57;;;;;;;0.70;0.50;;;29.70;71.70;;;;;;4958807;28;20188;-62
2023/09/17 15:44:24;;;;;;;0.30;0.20;;;29.70;71.80;;;;;;4958266;29;20651;-62
2023/09/17 15:46:50;;;;;;;0.30;0.30;;;29.70;72.00;;;;;;4971706;28;20278;-62
2023/09/17 15:49:16;;;;;;;0.30;0.20;;;29.70;73.10;;;;;;4977919;28;20458;-62
2023/09/17 15:51:41;;;;;;;0.30;0.20;;;29.70;72.70;;;;;;4977904;28;20443;-62
2023/09/17 15:54:07;;;;;;;0.30;0.30;;;29.70;72.60;;;;;;4977579;28;20183;-62
2023/09/17 15:56:33;;;;;;;0.40;0.30;;;29.70;72.50;;;;;;4977805;28;20578;-63
2023/09/17 15:58:58;;;;;;;0.30;0.30;;;29.80;72.60;;;;;;4977861;28;20663;-62
2023/09/17 16:01:24;;;;;;;0.30;0.20;;;29.80;73.10;;;;;;4948012;28;20177;-63
2023/09/17 16:03:50;;;;;;;0.30;0.20;;;29.70;73.60;;;;;;4958220;29;20192;-63
2023/09/17 16:06:22;;;;;;;0.53;0.30;;;29.70;73.40;;;;;;4958417;28;20205;-63
2023/09/17 16:08:48;;;;;;;0.30;0.30;;;29.70;73.50;;;;;;4958726;29;20196;-63
2023/09/17 16:11:14;;;;;;;0.30;0.30;;;29.60;74.10;;;;;;4958474;29;20408;-63
2023/09/17 16:13:39;;;;;;;0.57;0.57;;;29.50;73.70;;;;;;4957924;29;20387;-63
2023/09/17 16:16:05;;;;;;;0.40;0.30;;;29.40;74.20;;;;;;4969470;28;20200;-62
2023/09/17 16:18:30;;;;;;;0.30;0.20;;;29.30;74.20;;;;;;4977866;28;20173;-62
2023/09/17 16:20:56;;;;;;;0.30;0.30;;;29.20;74.70;;;;;;4978120;28;20195;-62
2023/09/17 16:23:22;;;;;;;0.30;0.20;;;29.10;74.80;;;;;;4977374;28;20642;-62
2023/09/17 16:25:47;;;;;;;0.60;0.40;;;29.00;75.00;;;;;;4977049;28;20230;-62
2023/09/17 16:28:13;;;;;;;0.30;0.30;;;28.90;75.20;;;;;;4977540;28;20230;-62
2023/09/17 16:30:39;;;;;;;0.30;0.20;;;28.80;75.00;;;;;;4966617;28;20231;-62
2023/09/17 16:33:04;;;;;;;0.40;0.27;;;28.70;75.10;;;;;;4957870;29;20186;-62
2023/09/17 16:35:30;;;;;;;0.30;0.30;;;28.70;75.70;;;;;;4957351;29;20200;-62
2023/09/17 16:37:55;;;;;;;0.40;0.40;;;28.60;75.90;;;;;;4957947;29;20179;-62
2023/09/17 16:40:21;;;;;;;0.50;0.50;;;28.50;75.80;;;;;;4957661;28;20180;-62
2023/09/17 16:42:47;;;;;;;0.40;0.40;;;28.50;76.00;;;;;;4957941;29;20211;-62
2023/09/17 16:45:12;;;;;;;0.30;0.20;;;28.50;76.40;;;;;;4969357;28;20201;-62
2023/09/17 16:47:38;;;;;;;0.40;0.40;;;28.40;76.60;;;;;;4976838;28;20171;-62
2023/09/17 16:50:04;;;;;;;0.40;0.40;;;28.40;76.90;;;;;;4976247;28;20273;-60
2023/09/17 16:52:30;;;;;;;0.30;0.20;;;28.30;77.60;;;;;;4976805;28;20259;-62